createdAt,value
2019-03-26T00:00:14.503Z,1.92
2019-03-26T00:02:41.789Z,1.40
2019-03-26T00:05:09.128Z,1.40
2019-03-26T00:07:36.398Z,1.30
2019-03-26T00:10:04.112Z,1.22
2019-03-26T00:12:31.471Z,1.67
2019-03-26T00:14:58.756Z,2.02
2019-03-26T00:17:26.010Z,1.45
2019-03-26T00:19:53.287Z,2.25
2019-03-26T00:22:20.626Z,1.80
2019-03-26T00:24:48.109Z,1.22
2019-03-26T00:27:15.398Z,1.40
2019-03-26T00:29:42.684Z,1.60
2019-03-26T00:32:09.941Z,1.55
2019-03-26T00:34:37.204Z,1.22
2019-03-26T00:37:04.477Z,1.27
2019-03-26T00:39:31.785Z,1.20
2019-03-26T00:41:59.122Z,0.88
2019-03-26T00:44:26.502Z,1.32
2019-03-26T00:46:53.967Z,1.07
2019-03-26T00:49:21.230Z,1.90
2019-03-26T00:51:48.557Z,1.62
2019-03-26T00:54:15.948Z,1.00
2019-03-26T00:56:43.230Z,0.98
2019-03-26T00:59:10.550Z,1.05
2019-03-26T01:01:37.849Z,1.65
2019-03-26T01:04:05.175Z,1.47
2019-03-26T01:06:32.605Z,1.40
2019-03-26T01:08:59.867Z,1.65
2019-03-26T01:11:27.190Z,1.85
2019-03-26T01:13:54.463Z,2.30
2019-03-26T01:16:21.729Z,1.87
2019-03-26T01:18:48.996Z,1.67
2019-03-26T01:21:16.269Z,1.42
2019-03-26T01:23:43.543Z,1.20
2019-03-26T01:26:10.817Z,1.25
2019-03-26T01:28:38.557Z,2.10
2019-03-26T01:31:05.994Z,1.87
2019-03-26T01:33:33.270Z,1.57
2019-03-26T01:36:01.092Z,1.47
2019-03-26T01:38:28.452Z,1.10
2019-03-26T01:40:55.881Z,1.70
2019-03-26T01:43:23.158Z,2.05
2019-03-26T01:45:50.433Z,1.92
2019-03-26T01:48:17.689Z,1.57
2019-03-26T01:50:45.150Z,1.65
2019-03-26T01:53:12.429Z,1.80
2019-03-26T01:55:39.738Z,1.80
2019-03-26T01:58:07.014Z,1.20
2019-03-26T02:00:34.449Z,1.82
2019-03-26T02:03:01.735Z,0.98
2019-03-26T02:05:29.004Z,1.57
2019-03-26T02:07:56.281Z,1.30
2019-03-26T02:10:23.541Z,1.77
2019-03-26T02:12:50.823Z,1.72
2019-03-26T02:15:22.270Z,1.30
2019-03-26T02:17:49.555Z,1.80
2019-03-26T02:20:16.988Z,1.05
2019-03-26T02:22:44.271Z,1.75
2019-03-26T02:25:11.549Z,1.55
2019-03-26T02:27:39.009Z,1.40
2019-03-26T02:30:06.436Z,1.52
2019-03-26T02:32:33.702Z,1.52
2019-03-26T02:35:16.908Z,1.00
2019-03-26T02:37:29.950Z,1.07
2019-03-26T02:39:57.211Z,1.30
2019-03-26T02:42:24.485Z,1.00
2019-03-26T02:44:51.854Z,0.60
2019-03-26T02:47:19.320Z,0.70
2019-03-26T02:49:46.609Z,1.60
2019-03-26T02:52:13.895Z,0.98
2019-03-26T02:54:41.174Z,1.10
2019-03-26T02:57:08.454Z,1.20
2019-03-26T02:59:36.008Z,0.75
2019-03-26T03:02:03.448Z,0.60
2019-03-26T03:04:30.762Z,0.50
2019-03-26T03:06:58.039Z,0.62
2019-03-26T03:09:25.302Z,1.00
2019-03-26T03:11:52.583Z,0.80
2019-03-26T03:14:19.938Z,0.70
2019-03-26T03:16:47.222Z,0.62
2019-03-26T03:19:16.043Z,0.68
2019-03-26T03:21:43.596Z,0.80
2019-03-26T03:24:10.879Z,0.60
2019-03-26T03:26:38.145Z,0.60
2019-03-26T03:29:05.503Z,0.60
2019-03-26T03:31:32.766Z,0.78
2019-03-26T03:34:00.011Z,0.53
2019-03-26T03:36:27.292Z,0.60
2019-03-26T03:38:54.546Z,0.62
2019-03-26T03:41:21.850Z,0.90
2019-03-26T03:43:49.117Z,0.60
2019-03-26T03:46:16.441Z,0.75
2019-03-26T03:48:44.098Z,0.60
2019-03-26T03:51:12.871Z,0.68
2019-03-26T03:53:40.130Z,1.70
2019-03-26T03:56:07.778Z,0.93
2019-03-26T03:58:36.629Z,0.93
2019-03-26T04:01:04.050Z,0.78
2019-03-26T04:03:31.379Z,1.10
2019-03-26T04:06:08.913Z,0.90
2019-03-26T04:08:27.771Z,0.60
2019-03-26T04:10:55.321Z,0.90
2019-03-26T04:13:22.659Z,1.62
2019-03-26T04:15:49.947Z,1.52
2019-03-26T04:18:17.311Z,1.30
2019-03-26T04:20:44.574Z,1.17
2019-03-26T04:23:11.876Z,1.30
2019-03-26T04:25:39.181Z,1.57
2019-03-26T04:28:06.513Z,1.60
2019-03-26T04:30:34.068Z,1.20
2019-03-26T04:33:01.758Z,1.10
2019-03-26T04:35:29.116Z,1.07
2019-03-26T04:37:56.868Z,1.12
2019-03-26T04:40:24.122Z,1.17
2019-03-26T04:42:51.402Z,2.05
2019-03-26T04:45:18.672Z,2.00
2019-03-26T04:47:45.954Z,1.40
2019-03-26T04:50:13.289Z,1.90
2019-03-26T04:52:40.565Z,1.40
2019-03-26T04:55:07.898Z,1.80
2019-03-26T04:57:35.198Z,1.82
2019-03-26T05:00:02.679Z,1.50
2019-03-26T05:02:30.001Z,1.20
2019-03-26T05:04:57.275Z,1.40
2019-03-26T05:07:24.542Z,2.33
2019-03-26T05:09:51.824Z,1.82
2019-03-26T05:12:19.107Z,2.27
2019-03-26T05:14:46.390Z,1.40
2019-03-26T05:17:13.699Z,1.65
2019-03-26T05:19:41.114Z,2.12
2019-03-26T05:22:08.374Z,1.60
2019-03-26T05:24:35.670Z,1.47
2019-03-26T05:27:02.946Z,0.90
2019-03-26T05:29:30.207Z,1.62
2019-03-26T05:31:57.469Z,1.50
2019-03-26T05:34:24.755Z,1.45
2019-03-26T05:36:52.089Z,1.40
2019-03-26T05:39:19.494Z,2.17
2019-03-26T05:41:46.766Z,1.37
2019-03-26T05:44:14.119Z,1.60
2019-03-26T05:46:42.351Z,1.55
2019-03-26T05:49:09.799Z,1.00
2019-03-26T05:51:37.067Z,1.62
2019-03-26T05:54:04.389Z,1.55
2019-03-26T05:56:31.670Z,1.77
2019-03-26T05:58:58.919Z,1.72
2019-03-26T06:01:26.190Z,1.05
2019-03-26T06:03:53.461Z,0.95
2019-03-26T06:06:20.746Z,1.40
2019-03-26T06:08:48.019Z,1.10
2019-03-26T06:11:15.392Z,1.20
2019-03-26T06:13:42.728Z,1.62
2019-03-26T06:16:10.018Z,1.82
2019-03-26T06:18:37.283Z,1.50
2019-03-26T06:21:04.572Z,1.10
2019-03-26T06:23:31.862Z,1.62
2019-03-26T06:25:59.119Z,1.20
2019-03-26T06:28:26.424Z,0.90
2019-03-26T06:30:53.682Z,1.52
2019-03-26T06:33:20.980Z,1.20
2019-03-26T06:35:48.317Z,1.72
2019-03-26T06:38:15.694Z,1.50
2019-03-26T06:40:43.059Z,2.08
2019-03-26T06:43:10.343Z,2.37
2019-03-26T06:45:37.622Z,1.20
2019-03-26T06:48:04.900Z,1.20
2019-03-26T06:50:32.329Z,1.10
2019-03-26T06:52:59.617Z,1.40
2019-03-26T06:55:26.977Z,1.82
2019-03-26T06:57:54.271Z,1.27
2019-03-26T07:00:31.514Z,1.50
2019-03-26T07:02:59.909Z,1.45
2019-03-26T07:05:27.255Z,1.70
2019-03-26T07:07:54.624Z,1.98
2019-03-26T07:10:23.543Z,1.85
2019-03-26T07:12:50.903Z,1.35
2019-03-26T07:15:18.186Z,1.77
2019-03-26T07:17:45.477Z,2.22
2019-03-26T07:20:13.058Z,2.20
2019-03-26T07:22:40.437Z,1.82
2019-03-26T07:25:09.003Z,1.40
2019-03-26T07:27:37.061Z,2.58
2019-03-26T07:30:06.027Z,1.90
2019-03-26T07:32:33.344Z,2.95
2019-03-26T07:35:00.751Z,1.72
2019-03-26T07:37:28.032Z,2.15
2019-03-26T07:39:55.667Z,1.92
2019-03-26T07:42:22.930Z,2.00
2019-03-26T07:44:50.217Z,2.35
2019-03-26T07:47:17.745Z,1.77
2019-03-26T07:49:45.149Z,2.05
2019-03-26T07:52:15.459Z,1.65
2019-03-26T07:54:41.430Z,2.27
2019-03-26T07:57:08.718Z,2.15
2019-03-26T07:59:35.991Z,1.87
2019-03-26T08:02:03.253Z,1.85
2019-03-26T08:04:30.538Z,2.10
2019-03-26T08:06:57.808Z,2.35
2019-03-26T08:09:25.176Z,1.85
2019-03-26T08:11:52.850Z,2.45
2019-03-26T08:14:20.158Z,2.40
2019-03-26T08:16:47.483Z,2.27
2019-03-26T08:19:14.762Z,2.00
2019-03-26T08:21:42.035Z,2.00
2019-03-26T08:24:09.389Z,1.90
2019-03-26T08:26:36.658Z,1.95
2019-03-26T08:29:03.947Z,2.30
2019-03-26T08:31:31.202Z,2.22
2019-03-26T08:33:58.502Z,2.72
2019-03-26T08:36:25.767Z,2.25
2019-03-26T08:38:53.046Z,2.02
2019-03-26T08:41:20.935Z,2.47
2019-03-26T08:43:48.227Z,2.33
2019-03-26T08:46:15.498Z,2.60
2019-03-26T08:48:44.317Z,2.42
2019-03-26T08:51:11.675Z,2.00
2019-03-26T08:53:38.967Z,2.00
2019-03-26T08:56:06.328Z,1.92
2019-03-26T08:58:33.614Z,2.10
2019-03-26T09:01:00.893Z,2.20
2019-03-26T09:03:28.181Z,2.47
2019-03-26T09:05:55.458Z,3.05
2019-03-26T09:08:25.525Z,3.33
2019-03-26T09:10:52.248Z,2.12
2019-03-26T09:13:19.609Z,2.20
2019-03-26T09:15:47.052Z,2.20
2019-03-26T09:18:14.403Z,2.50
2019-03-26T09:20:41.698Z,2.75
2019-03-26T09:23:12.076Z,2.52
2019-03-26T09:25:37.980Z,1.60
2019-03-26T09:28:05.254Z,2.22
2019-03-26T09:30:32.614Z,2.70
2019-03-26T09:32:59.887Z,2.02
2019-03-26T09:35:27.165Z,1.45
2019-03-26T09:37:54.497Z,2.70
2019-03-26T09:40:21.946Z,1.90
2019-03-26T09:42:49.213Z,2.65
2019-03-26T09:45:16.514Z,1.62
2019-03-26T09:47:43.909Z,1.80
2019-03-26T09:50:11.540Z,2.02
2019-03-26T09:52:38.830Z,2.05
2019-03-26T09:55:06.973Z,2.22
2019-03-26T09:57:34.831Z,1.60
2019-03-26T10:00:02.178Z,1.98
2019-03-26T10:02:29.508Z,2.00
2019-03-26T10:04:56.794Z,1.90
2019-03-26T10:07:24.114Z,2.10
2019-03-26T10:09:53.155Z,2.12
2019-03-26T10:12:20.418Z,1.67
2019-03-26T10:14:47.804Z,2.05
2019-03-26T10:17:15.247Z,2.25
2019-03-26T10:19:42.563Z,1.85
2019-03-26T10:22:09.840Z,2.37
2019-03-26T10:24:37.132Z,1.65
2019-03-26T10:27:04.389Z,2.20
2019-03-26T10:29:31.717Z,2.15
2019-03-26T10:31:59.000Z,2.62
2019-03-26T10:34:26.266Z,2.17
2019-03-26T10:36:53.928Z,2.42
2019-03-26T10:39:21.230Z,2.60
2019-03-26T10:41:48.579Z,2.17
2019-03-26T10:44:15.851Z,2.22
2019-03-26T10:46:44.605Z,2.20
2019-03-26T10:49:11.993Z,2.52
2019-03-26T10:51:39.286Z,2.10
2019-03-26T10:54:06.629Z,1.95
2019-03-26T10:56:33.906Z,1.67
2019-03-26T10:59:04.056Z,1.40
2019-03-26T11:01:30.187Z,1.90
2019-03-26T11:03:57.468Z,1.67
2019-03-26T11:06:24.739Z,1.77
2019-03-26T11:08:52.040Z,3.17
2019-03-26T11:11:19.313Z,1.85
2019-03-26T11:13:46.658Z,2.15
2019-03-26T11:18:48.911Z,2.08
2019-03-26T11:21:16.293Z,1.22
2019-03-26T11:23:43.562Z,2.45
2019-03-26T11:26:10.866Z,2.70
2019-03-26T11:28:38.475Z,1.72
2019-03-26T11:31:05.769Z,1.50
2019-03-26T11:33:33.102Z,2.60
2019-03-26T11:36:00.392Z,2.05
2019-03-26T11:38:27.679Z,2.60
2019-03-26T11:40:54.984Z,1.77
2019-03-26T11:43:22.249Z,2.05
2019-03-26T11:45:49.626Z,1.60
2019-03-26T11:48:16.988Z,2.02
2019-03-26T11:50:44.281Z,2.45
2019-03-26T11:53:11.656Z,1.90
2019-03-26T11:55:38.939Z,2.27
2019-03-26T11:58:06.224Z,2.22
2019-03-26T12:00:35.153Z,2.00
2019-03-26T12:03:02.502Z,1.90
2019-03-26T12:05:29.783Z,1.87
2019-03-26T12:07:57.064Z,1.87
2019-03-26T12:10:24.342Z,2.17
2019-03-26T12:12:51.609Z,1.65
2019-03-26T12:15:18.947Z,1.57
2019-03-26T12:17:46.225Z,2.62
2019-03-26T12:20:13.681Z,2.45
2019-03-26T12:22:40.949Z,1.65
2019-03-26T12:25:27.636Z,2.25
2019-03-26T12:27:54.925Z,2.08
2019-03-26T12:30:26.790Z,1.85
2019-03-26T12:32:54.347Z,2.05
2019-03-26T12:35:23.160Z,2.22
2019-03-26T12:37:50.438Z,2.02
2019-03-26T12:40:17.701Z,2.17
2019-03-26T12:42:45.026Z,1.90
2019-03-26T12:45:12.525Z,1.82
2019-03-26T12:47:39.813Z,1.87
2019-03-26T12:50:07.161Z,2.00
2019-03-26T12:52:34.424Z,1.60
2019-03-26T12:55:01.745Z,2.33
2019-03-26T12:57:28.997Z,1.98
2019-03-26T12:59:56.318Z,2.30
2019-03-26T13:02:23.593Z,1.85
2019-03-26T13:04:50.887Z,1.98
2019-03-26T13:07:18.170Z,1.90
2019-03-26T13:09:45.433Z,1.82
2019-03-26T13:12:12.882Z,2.45
2019-03-26T13:14:40.164Z,2.10
2019-03-26T13:17:07.592Z,2.20
2019-03-26T13:19:34.920Z,2.70
2019-03-26T13:22:02.367Z,2.30
2019-03-26T13:24:29.643Z,2.50
2019-03-26T13:26:56.967Z,2.50
2019-03-26T13:29:24.235Z,2.50
2019-03-26T13:31:51.514Z,3.33
2019-03-26T13:34:18.915Z,2.55
2019-03-26T13:36:46.218Z,3.00
2019-03-26T13:39:13.643Z,2.75
2019-03-26T13:41:41.046Z,2.75
2019-03-26T13:44:08.359Z,3.20
2019-03-26T13:46:35.794Z,2.75
2019-03-26T13:49:03.166Z,2.70
2019-03-26T13:51:30.633Z,3.27
2019-03-26T13:53:57.903Z,3.58
2019-03-26T13:56:25.214Z,2.87
2019-03-26T13:58:52.547Z,2.80
2019-03-26T14:01:19.839Z,3.50
2019-03-26T14:03:47.314Z,3.37
2019-03-26T14:06:14.607Z,3.22
2019-03-26T14:08:41.955Z,3.15
2019-03-26T14:11:09.302Z,3.33
2019-03-26T14:13:36.581Z,2.67
2019-03-26T14:16:03.894Z,3.25
2019-03-26T14:18:31.155Z,3.12
2019-03-26T14:20:58.444Z,2.95
2019-03-26T14:23:25.712Z,3.05
2019-03-26T14:25:53.056Z,2.40
2019-03-26T14:28:20.310Z,3.50
2019-03-26T14:30:47.708Z,2.83
2019-03-26T14:33:15.189Z,3.40
2019-03-26T14:35:42.473Z,2.52
2019-03-26T14:38:09.989Z,3.20
2019-03-26T14:40:37.663Z,2.50
2019-03-26T14:43:05.097Z,3.00
2019-03-26T14:45:32.452Z,3.22
2019-03-26T14:47:59.707Z,3.12
2019-03-26T14:50:27.040Z,2.50
2019-03-26T14:52:54.421Z,3.30
2019-03-26T14:55:21.723Z,3.58
2019-03-26T14:57:48.991Z,3.15
2019-03-26T15:00:16.349Z,3.42
2019-03-26T15:02:43.743Z,3.65
2019-03-26T15:05:11.386Z,3.00
2019-03-26T15:07:38.693Z,4.40
2019-03-26T15:10:06.537Z,4.20
2019-03-26T15:12:33.871Z,3.92
2019-03-26T15:15:01.170Z,3.62
2019-03-26T15:17:28.437Z,3.50
2019-03-26T15:19:55.707Z,4.08
2019-03-26T15:22:23.013Z,4.28
2019-03-26T15:24:50.392Z,4.00
2019-03-26T15:27:17.657Z,4.15
2019-03-26T15:29:44.918Z,4.90
2019-03-26T15:32:12.207Z,5.40
2019-03-26T15:34:39.468Z,3.90
2019-03-26T15:37:06.759Z,4.90
2019-03-26T15:39:34.037Z,3.70
2019-03-26T15:42:01.382Z,3.95
2019-03-26T15:44:28.663Z,3.60
2019-03-26T15:46:55.956Z,3.10
2019-03-26T15:49:23.294Z,4.55
2019-03-26T15:51:50.589Z,3.77
2019-03-26T15:54:17.866Z,4.92
2019-03-26T15:56:45.500Z,4.70
2019-03-26T15:59:12.831Z,3.25
2019-03-26T16:01:40.118Z,3.83
2019-03-26T16:04:07.470Z,4.10
2019-03-26T16:06:34.772Z,3.95
2019-03-26T16:09:02.067Z,4.90
2019-03-26T16:11:35.570Z,3.40
2019-03-26T16:14:00.350Z,3.95
2019-03-26T16:16:27.698Z,4.55
2019-03-26T16:18:55.099Z,4.00
2019-03-26T16:21:22.533Z,4.78
2019-03-26T16:23:49.885Z,4.28
2019-03-26T16:26:17.211Z,4.30
2019-03-26T16:28:44.495Z,3.77
2019-03-26T16:31:11.810Z,3.08
2019-03-26T16:33:39.096Z,4.25
2019-03-26T16:36:06.386Z,3.55
2019-03-26T16:38:33.674Z,4.45
2019-03-26T16:41:00.947Z,3.50
2019-03-26T16:43:28.222Z,3.27
2019-03-26T16:45:55.485Z,4.30
2019-03-26T16:48:22.796Z,3.70
2019-03-26T16:50:50.086Z,3.30
2019-03-26T16:53:17.440Z,3.72
2019-03-26T16:55:44.778Z,4.03
2019-03-26T16:58:12.063Z,3.65
2019-03-26T17:00:39.409Z,4.28
2019-03-26T17:03:06.749Z,3.72
2019-03-26T17:05:34.014Z,3.83
2019-03-26T17:08:01.379Z,3.95
2019-03-26T17:10:28.712Z,3.70
2019-03-26T17:12:55.980Z,3.12
2019-03-26T17:15:23.646Z,3.50
2019-03-26T17:17:50.924Z,4.10
2019-03-26T17:20:18.190Z,3.47
2019-03-26T17:22:45.545Z,4.28
2019-03-26T17:25:12.892Z,3.45
2019-03-26T17:27:40.206Z,4.37
2019-03-26T17:30:08.430Z,3.98
2019-03-26T17:32:35.697Z,4.65
2019-03-26T17:35:03.471Z,4.30
2019-03-26T17:37:30.725Z,3.47
2019-03-26T17:39:57.990Z,5.40
2019-03-26T17:42:25.269Z,4.65
2019-03-26T17:44:52.817Z,3.62
2019-03-26T17:47:20.148Z,3.60
2019-03-26T17:49:47.534Z,3.47
2019-03-26T17:52:14.879Z,4.47
2019-03-26T17:54:42.165Z,3.60
2019-03-26T17:57:09.531Z,4.22
2019-03-26T17:59:36.810Z,3.75
2019-03-26T18:02:04.253Z,4.40
2019-03-26T18:04:31.585Z,5.95
2019-03-26T18:06:58.965Z,3.62
2019-03-26T18:09:26.237Z,4.87
2019-03-26T18:11:53.547Z,4.35
2019-03-26T18:14:20.828Z,4.67
2019-03-26T18:16:48.097Z,4.75
2019-03-26T18:19:15.529Z,4.20
2019-03-26T18:21:51.337Z,4.30
2019-03-26T18:24:11.864Z,4.25
2019-03-26T18:26:39.148Z,4.47
2019-03-26T18:29:06.523Z,4.30
2019-03-26T18:31:33.901Z,4.75
2019-03-26T18:34:01.212Z,4.40
2019-03-26T18:36:28.567Z,4.20
2019-03-26T18:38:55.842Z,4.78
2019-03-26T18:41:23.131Z,5.10
2019-03-26T18:43:50.461Z,5.47
2019-03-26T18:46:17.869Z,5.35
2019-03-26T18:48:45.225Z,5.05
2019-03-26T18:51:12.507Z,4.62
2019-03-26T18:53:39.798Z,4.92
2019-03-26T18:56:07.159Z,4.30
2019-03-26T18:58:34.491Z,3.75
2019-03-26T19:01:01.779Z,4.75
2019-03-26T19:03:29.182Z,6.53
2019-03-26T19:05:56.446Z,5.58
2019-03-26T19:08:23.858Z,5.62
2019-03-26T19:10:51.138Z,4.87
2019-03-26T19:13:20.197Z,5.80
2019-03-26T19:15:47.512Z,5.40
2019-03-26T19:18:14.795Z,4.62
2019-03-26T19:20:42.147Z,4.33
2019-03-26T19:23:09.453Z,4.10
2019-03-26T19:25:36.743Z,5.75
2019-03-26T19:28:04.015Z,3.33
2019-03-26T19:30:31.297Z,5.25
2019-03-26T19:32:58.575Z,5.67
2019-03-26T19:35:25.962Z,4.60
2019-03-26T19:37:53.247Z,6.20
2019-03-26T19:40:20.610Z,4.37
2019-03-26T19:42:47.920Z,4.58
2019-03-26T19:45:15.957Z,3.50
2019-03-26T19:47:43.387Z,4.47
2019-03-26T19:50:10.939Z,6.30
2019-03-26T19:52:38.404Z,4.72
2019-03-26T19:55:06.743Z,4.72
2019-03-26T19:57:34.098Z,5.12
2019-03-26T20:00:01.401Z,5.90
2019-03-26T20:02:28.675Z,4.42
2019-03-26T20:04:55.961Z,5.20
2019-03-26T20:07:24.117Z,5.12
2019-03-26T20:09:51.461Z,3.95
2019-03-26T20:12:18.858Z,3.70
2019-03-26T20:14:46.151Z,4.15
2019-03-26T20:17:13.440Z,4.92
2019-03-26T20:19:40.793Z,3.87
2019-03-26T20:22:08.073Z,4.08
2019-03-26T20:24:35.338Z,4.92
2019-03-26T20:27:02.618Z,3.40
2019-03-26T20:29:29.889Z,4.37
2019-03-26T20:31:57.201Z,5.90
2019-03-26T20:34:24.476Z,5.50
2019-03-26T20:36:51.755Z,4.67
2019-03-26T20:39:19.525Z,4.60
2019-03-26T20:41:46.862Z,4.20
2019-03-26T20:44:14.126Z,4.20
2019-03-26T20:46:41.506Z,3.15
2019-03-26T20:49:10.407Z,5.40
2019-03-26T20:51:37.685Z,4.90
2019-03-26T20:54:04.965Z,3.58
2019-03-26T20:56:32.778Z,3.27
2019-03-26T20:59:00.536Z,5.05
2019-03-26T21:01:27.810Z,4.20
2019-03-26T21:03:55.109Z,4.00
2019-03-26T21:06:22.381Z,4.37
2019-03-26T21:08:49.881Z,4.12
2019-03-26T21:11:17.129Z,3.50
2019-03-26T21:13:50.716Z,3.20
2019-03-26T21:16:13.646Z,2.37
2019-03-26T21:18:40.982Z,3.50
2019-03-26T21:21:08.278Z,3.42
2019-03-26T21:23:35.554Z,3.67
2019-03-26T21:26:02.833Z,3.25
2019-03-26T21:28:30.105Z,3.20
2019-03-26T21:30:57.411Z,3.72
2019-03-26T21:33:24.683Z,4.20
2019-03-26T21:35:52.091Z,4.25
2019-03-26T21:38:19.390Z,4.15
2019-03-26T21:40:47.452Z,4.45
2019-03-26T21:43:14.913Z,4.53
2019-03-26T21:45:42.246Z,3.75
2019-03-26T21:48:09.594Z,3.35
2019-03-26T21:50:36.875Z,3.72
2019-03-26T21:53:04.243Z,3.02
2019-03-26T21:55:31.716Z,3.95
2019-03-26T21:57:58.999Z,2.87
2019-03-26T22:00:26.258Z,4.28
2019-03-26T22:02:53.543Z,3.65
2019-03-26T22:05:20.805Z,2.50
2019-03-26T22:07:48.090Z,3.15
2019-03-26T22:10:15.629Z,2.75
2019-03-26T22:12:42.973Z,3.00
2019-03-26T22:15:11.120Z,2.70
2019-03-26T22:17:38.468Z,2.85
2019-03-26T22:20:06.126Z,2.55
2019-03-26T22:22:33.409Z,3.22
2019-03-26T22:25:00.850Z,3.17
2019-03-26T22:27:28.133Z,3.40
2019-03-26T22:29:55.401Z,2.72
2019-03-26T22:32:22.657Z,2.98
2019-03-26T22:34:49.945Z,2.25
2019-03-26T22:37:17.210Z,3.05
2019-03-26T22:39:44.642Z,3.12
2019-03-26T22:42:12.094Z,2.52
2019-03-26T22:44:39.388Z,2.55
2019-03-26T22:47:06.647Z,2.20
2019-03-26T22:49:33.977Z,3.10
2019-03-26T22:52:01.264Z,2.70
2019-03-26T22:54:28.806Z,2.22
2019-03-26T22:56:56.130Z,2.58
2019-03-26T22:59:23.402Z,3.17
2019-03-26T23:01:50.783Z,3.27
2019-03-26T23:04:20.042Z,2.17
2019-03-26T23:06:47.183Z,2.40
2019-03-26T23:09:14.729Z,2.27
2019-03-26T23:11:42.001Z,2.83
2019-03-26T23:14:09.279Z,2.00
2019-03-26T23:16:36.555Z,2.35
2019-03-26T23:19:03.912Z,2.30
2019-03-26T23:21:31.303Z,2.00
2019-03-26T23:23:58.705Z,1.70
2019-03-26T23:26:26.045Z,2.30
2019-03-26T23:28:53.315Z,2.60
2019-03-26T23:31:20.603Z,2.70
2019-03-26T23:33:47.923Z,2.30
2019-03-26T23:36:15.205Z,2.10
2019-03-26T23:38:42.469Z,1.00
2019-03-26T23:41:09.751Z,2.00
2019-03-26T23:43:36.999Z,2.30
2019-03-26T23:46:04.380Z,2.35
2019-03-26T23:48:31.725Z,2.20
2019-03-26T23:50:59.014Z,2.10
2019-03-26T23:53:26.280Z,2.45
2019-03-26T23:55:53.574Z,2.42
2019-03-26T23:58:20.847Z,1.27
